Time;durP1;ratioP1;P1;durP2;ratioP2;P2;SDS_P1;SDS_P2;PMS_P1;PMS_P2;Temp;Humidity;BMP_temperature;BMP_pressure;BME280_temperature;BME280_humidity;BME280_pressure;Samples;Min_cycle;Max_cycle;Signal;HPM_P1;HPM_P2
2022/02/08 00:02:12;;;;;;;2.55;1.13;;;6.40;84.60;;;;;;6158351;23;20036;-74
2022/02/08 00:04:38;;;;;;;2.40;0.73;;;6.50;84.70;;;;;;6183734;23;20028;-73
2022/02/08 00:07:06;;;;;;;3.25;1.20;;;6.50;84.80;;;;;;6183337;23;20004;-73
2022/02/08 00:09:33;;;;;;;2.53;1.10;;;6.50;84.90;;;;;;6182083;23;20009;-72
2022/02/08 00:11:59;;;;;;;2.67;1.23;;;6.50;84.90;;;;;;6183532;23;20012;-73
2022/02/08 00:14:25;;;;;;;3.22;1.35;;;6.50;85.00;;;;;;6182907;23;20017;-72
2022/02/08 00:16:52;;;;;;;4.43;1.45;;;6.50;85.00;;;;;;6183137;23;20339;-72
2022/02/08 00:19:18;;;;;;;3.50;1.30;;;6.70;85.30;;;;;;6183161;23;20013;-73
2022/02/08 00:21:44;;;;;;;3.42;1.50;;;6.50;85.30;;;;;;6182829;23;20033;-72
2022/02/08 00:24:09;;;;;;;4.18;1.42;;;6.50;85.50;;;;;;6182918;23;20452;-73
2022/02/08 00:26:35;;;;;;;4.30;1.45;;;6.50;85.60;;;;;;6181995;23;20007;-73
2022/02/08 00:29:01;;;;;;;4.72;1.65;;;6.50;85.80;;;;;;6182808;23;20052;-73
2022/02/08 00:31:27;;;;;;;4.88;1.45;;;6.50;86.00;;;;;;6181447;23;20066;-72
2022/02/08 00:33:52;;;;;;;5.55;1.55;;;6.40;86.00;;;;;;6181266;23;20135;-72
2022/02/08 00:36:18;;;;;;;4.93;1.50;;;6.40;86.10;;;;;;6183347;23;20051;-72
2022/02/08 00:38:44;;;;;;;3.92;1.50;;;6.40;86.30;;;;;;6182611;23;20005;-73
2022/02/08 00:41:10;;;;;;;4.80;1.83;;;6.40;86.40;;;;;;6178058;23;20009;-72
2022/02/08 00:43:49;;;;;;;3.90;1.67;;;6.40;86.50;;;;;;6182779;23;20009;-73
2022/02/08 00:46:38;;;;;;;6.30;2.17;;;6.40;86.60;;;;;;6159266;23;20322;-72
2022/02/08 00:49:03;;;;;;;3.72;1.92;;;6.40;86.60;;;;;;6182597;23;20002;-72
2022/02/08 00:51:39;;;;;;;3.10;1.70;;;6.50;86.70;;;;;;6181943;23;20032;-71
2022/02/08 00:54:05;;;;;;;4.68;1.90;;;6.40;86.80;;;;;;6154853;23;20325;-71
2022/02/08 00:56:31;;;;;;;4.20;1.90;;;6.40;86.80;;;;;;6183294;23;20005;-71
2022/02/08 00:58:57;;;;;;;5.45;2.15;;;6.50;86.90;;;;;;6178742;23;20012;-73
2022/02/08 01:01:23;;;;;;;3.45;1.52;;;6.50;87.00;;;;;;6156219;23;20892;-73
2022/02/08 01:03:48;;;;;;;5.20;1.90;;;6.50;87.00;;;;;;6181608;23;20326;-73
2022/02/08 01:06:16;;;;;;;5.78;2.03;;;6.50;87.10;;;;;;6183142;23;20004;-74
2022/02/08 01:08:42;;;;;;;4.88;1.90;;;6.50;87.10;;;;;;6181494;23;20035;-73
2022/02/08 01:11:10;;;;;;;3.83;1.73;;;6.50;87.20;;;;;;6182748;23;20005;-73
2022/02/08 01:13:38;;;;;;;3.25;1.65;;;6.50;87.30;;;;;;6179459;23;20036;-73
2022/02/08 01:16:05;;;;;;;3.70;1.90;;;6.50;87.50;;;;;;6181205;23;20005;-73
2022/02/08 01:18:35;;;;;;;5.70;1.90;;;6.50;87.60;;;;;;6184612;23;20019;-73
2022/02/08 01:21:00;;;;;;;3.33;1.80;;;6.40;87.70;;;;;;6182335;23;20092;-73
2022/02/08 01:23:26;;;;;;;2.85;1.60;;;6.50;87.90;;;;;;6182459;23;20043;-73
2022/02/08 01:25:56;;;;;;;4.28;1.77;;;6.50;88.00;;;;;;6184445;23;20428;-73
2022/02/08 01:28:35;;;;;;;5.25;1.85;;;6.40;88.00;;;;;;6176440;23;20076;-73
2022/02/08 01:31:01;;;;;;;3.70;1.77;;;6.50;88.10;;;;;;6180970;23;20079;-73
2022/02/08 01:33:52;;;;;;;3.83;1.90;;;6.50;88.20;;;;;;6184104;23;20032;-73
2022/02/08 01:39:14;;;;;;;6.07;1.88;;;6.50;88.30;;;;;;6182688;23;20394;-73
2022/02/08 01:42:01;;;;;;;4.90;1.92;;;6.60;88.40;;;;;;6184262;23;20005;-73
2022/02/08 01:44:34;;;;;;;3.72;2.17;;;6.60;89.10;;;;;;6183749;23;20024;-73
2022/02/08 01:47:09;;;;;;;4.63;2.10;;;6.60;88.50;;;;;;6183621;23;20021;-73
2022/02/08 01:49:49;;;;;;;4.38;1.95;;;6.60;88.50;;;;;;6183755;23;20131;-73
2022/02/08 01:52:14;;;;;;;3.95;2.28;;;6.70;88.60;;;;;;6181045;23;20009;-73
2022/02/08 01:54:40;;;;;;;5.07;2.85;;;6.70;88.70;;;;;;6157312;23;20027;-73
2022/02/08 01:57:06;;;;;;;5.88;2.45;;;6.70;88.70;;;;;;6182159;23;20008;-73
2022/02/08 01:59:32;;;;;;;5.57;2.65;;;6.70;88.80;;;;;;6183873;23;20005;-73
2022/02/08 02:01:58;;;;;;;4.22;2.33;;;6.80;88.90;;;;;;6180842;23;20100;-73
2022/02/08 02:04:24;;;;;;;4.25;2.60;;;6.80;88.90;;;;;;6181969;23;20006;-73
2022/02/08 02:06:50;;;;;;;4.47;2.70;;;6.80;89.00;;;;;;6179928;23;20008;-73
2022/02/08 02:09:16;;;;;;;5.30;2.95;;;6.80;89.10;;;;;;6183492;23;20012;-73
2022/02/08 02:11:43;;;;;;;5.30;3.00;;;6.90;89.20;;;;;;6183973;23;20017;-73
2022/02/08 02:14:08;;;;;;;7.80;3.53;;;6.90;89.20;;;;;;6183652;23;20005;-73
2022/02/08 02:16:49;;;;;;;6.50;3.15;;;6.90;89.30;;;;;;6180615;23;20362;-73
2022/02/08 02:19:15;;;;;;;5.13;3.22;;;7.00;89.40;;;;;;6184145;23;20905;-73
2022/02/08 02:21:40;;;;;;;8.02;3.35;;;7.00;89.50;;;;;;6183691;23;20085;-73
2022/02/08 02:24:07;;;;;;;7.43;3.72;;;7.00;89.50;;;;;;6183615;23;20091;-73
2022/02/08 02:26:33;;;;;;;7.03;3.65;;;7.00;89.60;;;;;;6182122;23;20004;-73
2022/02/08 02:28:58;;;;;;;8.43;3.72;;;7.00;89.80;;;;;;6183486;23;20409;-73
2022/02/08 02:31:24;;;;;;;5.75;3.47;;;7.00;89.80;;;;;;6157119;23;20005;-73
2022/02/08 02:33:50;;;;;;;6.97;3.70;;;7.00;89.90;;;;;;6183259;23;20485;-73
2022/02/08 02:36:16;;;;;;;6.63;3.55;;;7.00;89.90;;;;;;6180817;23;20330;-73
2022/02/08 02:38:42;;;;;;;5.88;3.30;;;7.10;90.00;;;;;;6183370;23;20008;-73
2022/02/08 02:41:07;;;;;;;6.50;3.80;;;7.10;90.30;;;;;;6182078;23;20085;-74
2022/02/08 02:43:33;;;;;;;7.88;3.40;;;7.10;90.00;;;;;;6184165;23;20013;-73
2022/02/08 02:46:02;;;;;;;7.68;3.90;;;7.10;90.10;;;;;;6157089;23;20008;-73
2022/02/08 02:48:28;;;;;;;7.13;4.53;;;7.10;90.10;;;;;;6183622;23;20001;-73
2022/02/08 02:50:54;;;;;;;8.18;4.25;;;7.20;90.10;;;;;;6182760;23;20001;-73
2022/02/08 02:53:23;;;;;;;6.93;4.05;;;7.20;90.20;;;;;;6184040;23;20028;-73
2022/02/08 02:55:49;;;;;;;6.85;3.90;;;7.20;90.20;;;;;;6180587;23;20464;-73
2022/02/08 02:58:15;;;;;;;8.05;4.22;;;7.30;90.20;;;;;;6183592;23;20001;-73
2022/02/08 03:00:49;;;;;;;7.43;4.63;;;7.30;90.20;;;;;;6183978;23;20037;-73
2022/02/08 03:03:29;;;;;;;8.48;5.40;;;7.30;90.20;;;;;;6184029;23;20131;-73
2022/02/08 03:17:25;;;;;;;8.00;5.28;;;7.40;90.30;;;;;;6182766;23;20177;-73
2022/02/08 03:19:24;;;;;;;8.77;4.65;;;7.50;90.40;;;;;;6183188;23;20009;-73
2022/02/08 03:21:50;;;;;;;7.72;4.47;;;7.50;90.40;;;;;;6183835;23;20012;-74
2022/02/08 03:24:15;;;;;;;7.65;4.70;;;7.50;90.40;;;;;;6181811;23;20005;-73
2022/02/08 03:26:41;;;;;;;7.85;5.15;;;7.60;90.40;;;;;;6183700;23;20028;-73
2022/02/08 03:29:07;;;;;;;10.23;5.60;;;7.60;90.40;;;;;;6183946;23;20005;-71
2022/02/08 03:31:33;;;;;;;9.52;5.95;;;7.60;90.50;;;;;;6183181;23;20036;-74
2022/02/08 03:33:59;;;;;;;8.90;5.30;;;7.70;90.50;;;;;;6156884;23;20013;-73
2022/02/08 03:36:26;;;;;;;9.52;5.70;;;7.60;90.80;;;;;;6181759;23;20008;-73
2022/02/08 03:39:16;;;;;;;10.02;5.35;;;7.70;90.50;;;;;;6181765;23;20058;-73
2022/02/08 03:41:45;;;;;;;8.57;5.22;;;7.70;90.50;;;;;;6182043;23;20021;-73
2022/02/08 03:44:18;;;;;;;8.90;5.63;;;7.80;90.50;;;;;;6182227;23;20001;-74
2022/02/08 03:46:44;;;;;;;10.63;5.82;;;7.80;90.50;;;;;;6183056;23;19997;-74
2022/02/08 03:49:10;;;;;;;9.48;5.72;;;7.90;90.60;;;;;;6181648;23;20128;-73
2022/02/08 03:51:49;;;;;;;9.80;6.15;;;7.90;90.60;;;;;;6183529;23;20005;-73
2022/02/08 03:54:17;;;;;;;10.57;6.05;;;7.90;90.60;;;;;;6182060;23;20056;-73
2022/02/08 03:56:43;;;;;;;9.60;5.40;;;8.00;90.60;;;;;;6183339;23;20001;-73
2022/02/08 03:59:11;;;;;;;8.00;4.93;;;8.00;90.60;;;;;;6180438;23;20013;-74
2022/02/08 04:02:03;;;;;;;8.32;4.93;;;8.00;90.60;;;;;;6182077;23;20359;-74
2022/02/08 04:04:46;;;;;;;9.35;4.80;;;8.10;90.60;;;;;;6181753;23;20009;-73
2022/02/08 04:07:20;;;;;;;8.07;4.75;;;8.10;90.60;;;;;;6182771;23;20060;-73
2022/02/08 04:09:47;;;;;;;7.90;4.82;;;8.20;90.90;;;;;;6182289;23;20001;-73
2022/02/08 04:12:21;;;;;;;9.38;4.93;;;8.20;90.70;;;;;;6183385;23;20005;-73
2022/02/08 04:14:57;;;;;;;9.63;5.15;;;8.20;90.70;;;;;;6182895;23;20060;-73
2022/02/08 04:17:35;;;;;;;10.35;5.45;;;8.20;90.70;;;;;;6183155;23;20036;-73
2022/02/08 04:31:22;;;;;;;9.20;4.80;;;8.30;90.70;;;;;;6182713;23;20001;-73
2022/02/08 04:36:47;;;;;;;9.60;6.03;;;8.40;90.80;;;;;;6182719;23;20005;-73
2022/02/08 04:44:28;;;;;;;8.60;6.13;;;8.50;90.90;;;;;;6182787;23;20064;-73
2022/02/08 04:47:06;;;;;;;9.63;5.28;;;8.50;90.90;;;;;;6183213;23;19997;-73
2022/02/08 04:49:32;;;;;;;8.20;5.25;;;8.50;90.90;;;;;;6182565;23;20072;-73
2022/02/08 04:52:03;;;;;;;7.63;4.80;;;8.60;90.90;;;;;;6183461;23;20029;-73
2022/02/08 04:54:38;;;;;;;8.23;4.70;;;8.50;90.90;;;;;;6182270;23;20461;-74
2022/02/08 04:57:16;;;;;;;8.93;5.03;;;8.60;91.00;;;;;;6183805;23;20337;-73
2022/02/08 05:00:12;;;;;;;8.85;5.25;;;8.60;91.00;;;;;;6184689;23;20001;-73
2022/02/08 05:43:11;;;;;;;6.18;3.88;;;8.50;91.30;;;;;;6184000;23;20013;-73
2022/02/08 05:45:35;;;;;;;6.72;4.30;;;8.50;91.30;;;;;;6183846;23;20009;-73
2022/02/08 05:48:05;;;;;;;6.45;4.00;;;8.50;91.30;;;;;;6182560;23;20004;-73
2022/02/08 05:50:42;;;;;;;7.57;4.90;;;8.50;91.30;;;;;;6183892;23;20001;-73
2022/02/08 05:53:27;;;;;;;6.95;4.30;;;8.60;91.30;;;;;;6183687;23;19997;-74
2022/02/08 05:55:53;;;;;;;7.10;4.18;;;8.60;91.30;;;;;;6161669;23;20004;-73
2022/02/08 05:58:19;;;;;;;7.38;3.88;;;8.50;91.30;;;;;;6184443;23;20024;-73
2022/02/08 06:00:45;;;;;;;7.57;3.53;;;8.60;91.30;;;;;;6184003;23;19997;-72
2022/02/08 06:03:11;;;;;;;6.40;3.88;;;8.60;91.40;;;;;;6183566;23;20448;-73
2022/02/08 06:05:37;;;;;;;7.47;3.88;;;8.60;91.40;;;;;;6184618;23;20330;-72
2022/02/08 06:08:03;;;;;;;5.95;3.80;;;8.50;91.30;;;;;;6182287;23;20005;-73
2022/02/08 06:10:30;;;;;;;6.43;3.47;;;8.60;91.40;;;;;;6157999;23;20028;-73
2022/02/08 06:12:57;;;;;;;6.95;3.65;;;8.50;91.40;;;;;;6158025;23;20003;-73
2022/02/08 06:15:25;;;;;;;7.00;3.80;;;8.50;91.40;;;;;;6184101;23;20039;-72
2022/02/08 06:17:55;;;;;;;7.60;4.20;;;8.60;91.40;;;;;;6184056;23;20055;-72
2022/02/08 06:20:22;;;;;;;7.57;4.25;;;8.50;91.50;;;;;;6182397;23;20496;-72
2022/02/08 06:22:48;;;;;;;7.65;4.63;;;8.50;91.50;;;;;;6182544;23;20017;-72
2022/02/08 06:25:16;;;;;;;6.20;4.07;;;8.50;91.50;;;;;;6184156;23;20009;-72
2022/02/08 06:27:45;;;;;;;7.70;4.55;;;8.50;91.50;;;;;;6182388;23;20001;-72
2022/02/08 06:30:12;;;;;;;7.72;4.00;;;8.50;91.50;;;;;;6183802;23;20054;-72
2022/02/08 06:32:38;;;;;;;8.85;3.88;;;8.50;91.50;;;;;;6184122;23;20029;-72
2022/02/08 06:35:11;;;;;;;6.25;3.33;;;8.40;91.50;;;;;;6183805;23;20491;-72
2022/02/08 06:37:39;;;;;;;6.15;3.60;;;8.40;91.60;;;;;;6184003;23;20024;-72
2022/02/08 06:40:06;;;;;;;5.13;3.20;;;8.50;91.60;;;;;;6184235;23;20329;-72
2022/02/08 06:42:32;;;;;;;6.65;3.30;;;8.40;91.60;;;;;;6184155;23;20017;-72
2022/02/08 06:44:58;;;;;;;6.13;3.17;;;8.30;91.60;;;;;;6157257;23;20003;-72
2022/02/08 06:47:24;;;;;;;6.03;3.50;;;8.30;91.60;;;;;;6183541;23;20011;-72
2022/02/08 06:49:50;;;;;;;7.45;3.20;;;8.30;91.60;;;;;;6184028;23;20028;-72
2022/02/08 06:52:16;;;;;;;6.13;3.47;;;8.30;91.70;;;;;;6180873;23;20001;-72
2022/02/08 06:54:42;;;;;;;6.80;3.42;;;8.30;91.70;;;;;;6182165;23;20337;-72
2022/02/08 06:57:08;;;;;;;6.20;3.10;;;8.30;91.70;;;;;;6183998;23;20009;-72
2022/02/08 06:59:37;;;;;;;5.28;2.85;;;8.30;91.70;;;;;;6184026;23;20023;-72
2022/02/08 07:02:05;;;;;;;6.68;3.42;;;8.20;91.70;;;;;;6157113;23;20032;-72
2022/02/08 07:04:30;;;;;;;4.63;2.75;;;8.30;91.80;;;;;;6183428;23;20440;-72
2022/02/08 07:06:56;;;;;;;6.45;2.88;;;8.30;91.80;;;;;;6183328;23;20028;-72
2022/02/08 07:09:23;;;;;;;6.57;3.20;;;8.30;91.80;;;;;;6184233;23;20004;-72
2022/02/08 07:11:50;;;;;;;6.72;3.63;;;8.30;91.80;;;;;;6182009;23;20005;-73
2022/02/08 07:14:16;;;;;;;6.22;3.28;;;8.20;91.80;;;;;;6182466;23;20037;-73
2022/02/08 07:16:44;;;;;;;5.85;3.33;;;8.20;91.80;;;;;;6156768;23;20437;-73
2022/02/08 07:19:09;;;;;;;6.20;3.30;;;8.20;91.80;;;;;;6183675;23;20001;-72
2022/02/08 07:21:36;;;;;;;6.78;3.78;;;8.20;91.80;;;;;;6183927;23;20016;-73
2022/02/08 07:24:02;;;;;;;5.63;3.40;;;8.30;91.80;;;;;;6183875;23;20071;-72
2022/02/08 07:26:28;;;;;;;6.57;3.78;;;8.30;91.80;;;;;;6184039;23;20007;-72
2022/02/08 07:28:54;;;;;;;7.22;3.83;;;8.40;91.80;;;;;;6184254;23;20031;-73
2022/02/08 07:31:23;;;;;;;6.90;3.55;;;8.40;91.80;;;;;;6183362;23;20582;-73
2022/02/08 07:34:01;;;;;;;6.10;3.22;;;8.40;91.70;;;;;;6183498;23;20001;-73
2022/02/08 07:36:39;;;;;;;5.93;2.80;;;8.40;91.60;;;;;;6182296;23;20021;-72
2022/02/08 07:39:09;;;;;;;5.68;3.20;;;8.50;91.70;;;;;;6184279;23;20310;-72
2022/02/08 07:41:37;;;;;;;4.95;2.50;;;8.50;91.70;;;;;;6182662;23;20012;-72
2022/02/08 07:44:08;;;;;;;5.32;2.70;;;8.50;91.70;;;;;;6184125;23;20013;-73
2022/02/08 07:46:34;;;;;;;3.92;2.33;;;8.50;91.70;;;;;;6183397;23;20016;-73
2022/02/08 07:49:03;;;;;;;4.40;2.53;;;8.50;91.70;;;;;;6181822;23;20088;-72
2022/02/08 07:51:29;;;;;;;4.22;2.33;;;8.60;91.70;;;;;;6183369;23;20013;-72
2022/02/08 07:53:55;;;;;;;4.70;2.40;;;8.50;91.70;;;;;;6179609;23;20435;-73
2022/02/08 07:56:21;;;;;;;4.30;2.00;;;8.60;91.70;;;;;;6157021;23;20037;-73
2022/02/08 07:58:46;;;;;;;3.50;2.17;;;8.60;91.70;;;;;;6181832;23;20011;-73
2022/02/08 08:01:12;;;;;;;3.97;1.90;;;8.60;91.60;;;;;;6183279;23;20006;-72
2022/02/08 08:03:40;;;;;;;5.00;2.13;;;8.60;91.60;;;;;;6183497;23;20080;-72
2022/02/08 08:06:09;;;;;;;3.90;1.75;;;8.70;91.60;;;;;;6183984;23;20413;-73
2022/02/08 08:08:34;;;;;;;2.63;1.25;;;8.70;91.60;;;;;;6181436;23;20020;-73
2022/02/08 08:11:03;;;;;;;3.30;1.63;;;8.70;91.60;;;;;;6181594;23;20009;-73
2022/02/08 08:13:28;;;;;;;3.05;1.77;;;8.80;91.60;;;;;;6183431;23;20024;-73
2022/02/08 08:16:04;;;;;;;4.53;1.70;;;8.70;91.60;;;;;;6178763;23;20001;-73
2022/02/08 08:21:06;;;;;;;2.58;1.40;;;8.70;91.50;;;;;;6183228;23;20067;-73
2022/02/08 08:23:31;;;;;;;2.63;1.52;;;8.80;91.60;;;;;;6156858;23;20012;-73
2022/02/08 08:25:57;;;;;;;4.65;1.70;;;8.80;91.60;;;;;;6183341;23;20432;-73
2022/02/08 08:28:23;;;;;;;3.25;1.63;;;8.80;91.60;;;;;;6184431;23;20432;-73
2022/02/08 08:30:48;;;;;;;2.45;1.52;;;8.80;91.60;;;;;;6182767;23;20008;-73
2022/02/08 08:33:15;;;;;;;3.63;1.70;;;8.80;91.60;;;;;;6158684;23;20024;-73
2022/02/08 08:35:41;;;;;;;2.70;1.38;;;8.80;91.60;;;;;;6184421;23;20001;-72
2022/02/08 08:38:14;;;;;;;3.65;1.80;;;8.80;91.60;;;;;;6184508;23;20063;-73
2022/02/08 08:51:42;;;;;;;2.85;1.20;;;9.00;91.50;;;;;;6156832;23;20501;-73
2022/02/08 08:54:08;;;;;;;2.80;1.13;;;9.00;91.50;;;;;;6183544;23;20017;-73
2022/02/08 08:56:36;;;;;;;1.73;0.88;;;9.10;91.50;;;;;;6183376;23;20334;-73
2022/02/08 08:59:03;;;;;;;1.20;0.90;;;9.10;91.40;;;;;;6184292;23;20080;-72
2022/02/08 09:01:29;;;;;;;3.55;1.15;;;9.20;91.40;;;;;;6184098;23;20011;-73
2022/02/08 09:03:55;;;;;;;2.85;0.93;;;9.30;91.40;;;;;;6184083;23;20870;-72
2022/02/08 09:06:21;;;;;;;2.05;0.82;;;9.40;91.30;;;;;;6184731;23;20024;-73
2022/02/08 09:08:47;;;;;;;2.92;0.95;;;9.40;91.30;;;;;;6184258;23;20012;-73
2022/02/08 09:14:08;;;;;;;1.77;0.80;;;9.60;91.10;;;;;;6182695;23;20009;-72
2022/02/08 09:16:41;;;;;;;3.60;0.85;;;9.70;91.00;;;;;;6184161;23;20076;-73
2022/02/08 09:30:08;;;;;;;2.30;0.80;;;10.00;90.80;;;;;;6183965;23;20005;-72
2022/02/08 09:32:44;;;;;;;2.47;0.68;;;10.00;90.80;;;;;;6184185;23;20012;-72
2022/02/08 09:35:14;;;;;;;3.42;0.90;;;10.00;90.70;;;;;;6184682;23;20008;-72
2022/02/08 09:37:40;;;;;;;2.42;0.80;;;10.00;90.70;;;;;;6184226;23;20001;-73
2022/02/08 09:40:08;;;;;;;4.47;1.00;;;10.00;90.70;;;;;;6183687;23;20076;-72
2022/02/08 09:42:37;;;;;;;2.65;0.85;;;10.20;90.70;;;;;;6183866;23;20008;-72
2022/02/08 09:45:05;;;;;;;2.40;0.82;;;10.10;90.60;;;;;;6183974;23;20009;-73
2022/02/08 09:47:40;;;;;;;2.92;0.75;;;10.10;90.60;;;;;;6182667;23;20005;-73
2022/02/08 09:50:14;;;;;;;3.97;0.85;;;10.20;90.60;;;;;;6181617;23;20009;-73
2022/02/08 09:52:46;;;;;;;4.60;0.93;;;10.20;90.50;;;;;;6184548;23;20414;-73
2022/02/08 09:55:12;;;;;;;5.35;1.25;;;10.20;90.50;;;;;;6176755;23;20012;-73
2022/02/08 09:57:39;;;;;;;4.07;0.93;;;10.30;90.40;;;;;;6184115;23;20001;-73
2022/02/08 10:00:05;;;;;;;3.05;1.02;;;10.40;90.40;;;;;;6183713;23;20005;-73
2022/02/08 10:02:31;;;;;;;3.28;0.85;;;10.40;90.30;;;;;;6183682;23;20068;-73
2022/02/08 10:04:58;;;;;;;1.63;0.50;;;10.40;90.30;;;;;;6183947;23;20005;-73
2022/02/08 10:07:24;;;;;;;5.03;1.02;;;10.50;90.30;;;;;;6184500;23;20412;-72
2022/02/08 10:09:50;;;;;;;2.85;0.70;;;10.60;90.30;;;;;;6184489;23;20033;-73
2022/02/08 10:12:20;;;;;;;1.25;0.75;;;10.60;90.20;;;;;;6183954;23;20467;-72
2022/02/08 10:21:02;;;;;;;2.45;0.93;;;10.80;90.10;;;;;;6183813;23;20067;-72
2022/02/08 10:22:54;;;;;;;2.55;0.90;;;10.70;90.00;;;;;;6180948;23;20025;-73
2022/02/08 10:25:30;;;;;;;3.58;1.00;;;10.80;90.00;;;;;;6183794;23;20366;-73
2022/02/08 10:28:09;;;;;;;1.25;0.50;;;10.80;89.90;;;;;;6182846;23;20425;-72
2022/02/08 10:38:59;;;;;;;3.45;1.10;;;10.80;89.60;;;;;;6183954;23;20016;-72
2022/02/08 10:41:25;;;;;;;4.68;1.17;;;10.80;89.60;;;;;;6184202;23;21215;-72
2022/02/08 10:44:00;;;;;;;3.42;1.20;;;10.80;89.60;;;;;;6157817;23;20009;-73
2022/02/08 10:46:27;;;;;;;3.30;1.00;;;10.80;89.50;;;;;;6184297;23;20426;-72
2022/02/08 10:49:03;;;;;;;2.50;0.85;;;10.80;89.50;;;;;;6183612;23;20068;-72
2022/02/08 10:51:33;;;;;;;1.52;0.60;;;10.80;89.50;;;;;;6180488;23;20012;-72
2022/02/08 10:54:04;;;;;;;3.17;0.68;;;10.80;89.50;;;;;;6184557;23;20011;-73
2022/02/08 10:56:34;;;;;;;1.08;0.57;;;10.80;89.50;;;;;;6181574;23;20008;-72
2022/02/08 10:59:14;;;;;;;3.40;0.80;;;10.80;89.60;;;;;;6184278;23;20001;-73
2022/02/08 11:01:47;;;;;;;3.10;0.90;;;10.80;89.50;;;;;;6181997;23;20009;-72
2022/02/08 11:04:20;;;;;;;2.45;0.90;;;10.80;89.40;;;;;;6184439;23;20009;-73
2022/02/08 11:06:54;;;;;;;2.05;0.65;;;10.90;89.30;;;;;;6184366;23;19998;-73
2022/02/08 11:09:33;;;;;;;2.67;0.80;;;10.90;89.20;;;;;;6182016;23;20073;-73
2022/02/08 11:12:25;;;;;;;1.88;0.73;;;10.90;89.20;;;;;;6183752;23;20009;-73
2022/02/08 11:15:02;;;;;;;2.25;0.70;;;11.00;89.10;;;;;;6177261;23;20009;-72
2022/02/08 11:20:28;;;;;;;3.15;0.70;;;11.20;88.80;;;;;;6183439;23;20062;-73
2022/02/08 11:22:59;;;;;;;0.93;0.60;;;11.10;88.60;;;;;;6183257;23;20013;-72
2022/02/08 11:25:34;;;;;;;2.10;0.70;;;11.20;88.50;;;;;;6183368;23;20027;-72
2022/02/08 11:28:28;;;;;;;3.17;0.80;;;11.20;88.40;;;;;;6184269;23;20032;-72
2022/02/08 11:31:05;;;;;;;3.05;1.05;;;11.10;88.30;;;;;;6184144;23;20120;-72
2022/02/08 11:33:45;;;;;;;2.83;0.88;;;11.20;88.20;;;;;;6183590;23;20092;-72
2022/02/08 11:39:14;;;;;;;1.75;0.57;;;11.40;88.00;;;;;;6182357;23;20009;-73
2022/02/08 11:42:53;;;;;;;2.67;0.98;;;11.30;87.90;;;;;;6182110;23;20013;-73
2022/02/08 11:44:54;;;;;;;3.75;0.98;;;11.30;88.00;;;;;;6182058;23;20005;-73
2022/02/08 11:50:37;;;;;;;1.55;0.75;;;11.40;87.50;;;;;;6182396;23;20036;-72
2022/02/08 11:53:45;;;;;;;1.92;0.63;;;11.40;87.50;;;;;;6183392;23;20084;-72
2022/02/08 11:56:23;;;;;;;2.65;0.70;;;11.50;87.50;;;;;;6183125;23;20016;-71
2022/02/08 12:01:59;;;;;;;3.05;1.10;;;11.50;87.00;;;;;;6181310;23;20017;-72
2022/02/08 12:04:42;;;;;;;1.80;0.70;;;11.50;86.90;;;;;;6184035;23;20372;-72
2022/02/08 12:07:15;;;;;;;6.28;1.10;;;11.50;87.00;;;;;;6157141;23;20429;-72
2022/02/08 12:09:50;;;;;;;5.00;1.50;;;11.50;86.60;;;;;;6183240;23;19994;-72
2022/02/08 12:31:59;;;;;;;4.05;1.08;;;11.70;85.70;;;;;;6183114;23;20013;-71
2022/02/08 12:54:13;;;;;;;3.53;0.77;;;11.80;85.40;;;;;;6182771;23;20017;-73
2022/02/08 12:59:48;;;;;;;2.53;0.70;;;11.80;85.30;;;;;;6182456;23;20445;-73
2022/02/08 13:02:28;;;;;;;1.30;0.75;;;11.80;85.10;;;;;;6183032;23;20032;-72
2022/02/08 13:05:41;;;;;;;1.55;0.60;;;11.80;85.20;;;;;;6183179;23;20111;-72
2022/02/08 13:17:28;;;;;;;1.98;0.90;;;11.70;85.10;;;;;;6184772;23;20083;-73
2022/02/08 13:32:55;;;;;;;3.55;0.80;;;11.60;85.00;;;;;;6183993;23;20013;-71
2022/02/08 14:01:39;;;;;;;3.20;0.90;;;11.50;85.00;;;;;;6184022;23;20016;-71
2022/02/08 14:01:55;;;;;;;3.35;0.70;;;11.40;85.00;;;;;;6183893;23;20023;-72
2022/02/08 14:07:10;;;;;;;4.70;0.90;;;11.50;85.00;;;;;;6184189;23;20005;-72
2022/02/08 14:09:48;;;;;;;1.90;0.80;;;11.50;84.80;;;;;;6184378;23;19994;-71
2022/02/08 14:20:45;;;;;;;3.15;0.73;;;11.50;84.40;;;;;;6183923;23;20459;-72
2022/02/08 14:23:23;;;;;;;2.83;0.68;;;11.50;84.40;;;;;;6183518;23;20020;-72
2022/02/08 14:29:00;;;;;;;4.03;0.77;;;11.60;84.30;;;;;;6181103;23;20027;-71
2022/02/08 14:31:37;;;;;;;4.85;0.70;;;11.50;84.10;;;;;;6183524;23;20076;-71
2022/02/08 14:34:42;;;;;;;2.63;0.75;;;11.50;84.10;;;;;;6183542;23;20009;-70
2022/02/08 14:36:59;;;;;;;2.40;0.75;;;11.50;84.10;;;;;;6183346;23;20016;-72
2022/02/08 14:59:23;;;;;;;2.58;0.80;;;11.40;83.90;;;;;;6183711;23;20071;-71
2022/02/08 15:06:41;;;;;;;0.40;0.40;;;11.40;84.20;;;;;;6181935;23;20080;-71
2022/02/08 15:09:04;;;;;;;2.17;0.50;;;11.40;84.20;;;;;;6183341;23;20009;-71
2022/02/08 15:11:45;;;;;;;1.33;0.60;;;11.40;84.20;;;;;;6179990;23;20013;-71
2022/02/08 15:14:11;;;;;;;2.30;0.60;;;11.40;84.20;;;;;;6179126;23;20084;-71
2022/02/08 15:16:37;;;;;;;1.13;0.60;;;11.50;84.30;;;;;;6182019;23;20092;-71
2022/02/08 15:19:04;;;;;;;2.58;0.63;;;11.30;84.20;;;;;;6157316;23;20025;-71
2022/02/08 15:21:33;;;;;;;3.63;0.98;;;11.30;84.30;;;;;;6182072;23;20096;-72
2022/02/08 15:24:02;;;;;;;1.30;0.70;;;11.30;84.30;;;;;;6184058;23;20075;-71
2022/02/08 15:26:29;;;;;;;1.65;0.68;;;11.40;84.40;;;;;;6184165;23;20005;-72
2022/02/08 15:28:55;;;;;;;2.13;0.60;;;11.30;84.30;;;;;;6183550;23;20001;-71
2022/02/08 15:31:21;;;;;;;3.22;0.60;;;11.30;84.20;;;;;;6157011;23;20024;-71
2022/02/08 15:33:47;;;;;;;1.17;0.60;;;11.30;84.20;;;;;;6183583;23;20105;-72
2022/02/08 15:36:16;;;;;;;1.27;0.68;;;11.20;84.10;;;;;;6183426;23;20005;-72
2022/02/08 15:38:47;;;;;;;3.35;0.50;;;11.20;84.20;;;;;;6183550;23;20005;-70
2022/02/08 15:41:14;;;;;;;1.20;0.63;;;11.20;84.20;;;;;;6183643;23;20001;-71
2022/02/08 15:43:39;;;;;;;1.05;0.50;;;11.20;84.20;;;;;;6184252;23;20457;-71
2022/02/08 15:46:15;;;;;;;3.20;0.93;;;11.20;84.20;;;;;;6183574;23;20008;-71
2022/02/08 15:48:44;;;;;;;1.50;0.65;;;11.20;84.30;;;;;;6157513;23;20337;-72
2022/02/08 15:51:18;;;;;;;2.92;0.88;;;11.20;84.10;;;;;;6183729;23;20013;-72
2022/02/08 15:56:39;;;;;;;2.38;0.60;;;11.10;83.90;;;;;;6161318;23;20337;-71
2022/02/08 16:07:28;;;;;;;2.80;0.75;;;11.10;84.10;;;;;;6159422;23;20028;-70
2022/02/08 16:10:03;;;;;;;2.13;0.55;;;11.00;84.10;;;;;;6184067;23;20004;-68
2022/02/08 16:13:03;;;;;;;2.35;0.70;;;11.00;84.20;;;;;;6183984;23;20015;-69
2022/02/08 16:20:44;;;;;;;1.23;0.50;;;10.90;84.50;;;;;;6183381;23;20009;-70
2022/02/08 16:23:31;;;;;;;1.35;0.50;;;10.90;84.70;;;;;;6183150;23;20009;-69
2022/02/08 16:26:07;;;;;;;1.20;0.50;;;10.90;84.90;;;;;;6182863;23;20019;-70
2022/02/08 16:28:53;;;;;;;0.98;0.30;;;10.90;84.90;;;;;;6156931;23;20001;-71
2022/02/08 16:31:35;;;;;;;1.17;0.52;;;10.90;85.00;;;;;;6183140;23;20016;-71
2022/02/08 17:01:11;;;;;;;0.98;0.50;;;10.80;85.10;;;;;;6157124;23;20005;-70
2022/02/08 17:03:42;;;;;;;1.23;0.70;;;10.70;85.10;;;;;;6185220;23;20059;-71
2022/02/08 17:06:08;;;;;;;2.10;0.80;;;10.70;85.10;;;;;;6182898;23;20013;-69
2022/02/08 17:08:34;;;;;;;2.33;0.88;;;10.70;85.00;;;;;;6185200;23;20005;-69
2022/02/08 17:11:01;;;;;;;1.52;0.70;;;10.70;85.00;;;;;;6184416;23;20009;-70
2022/02/08 17:13:40;;;;;;;1.08;0.65;;;10.80;85.00;;;;;;6180570;23;20006;-70
2022/02/08 17:16:17;;;;;;;1.23;0.60;;;10.70;85.00;;;;;;6184359;23;20007;-70
2022/02/08 17:35:43;;;;;;;0.80;0.77;;;10.60;85.10;;;;;;6184278;23;20032;-70
2022/02/08 17:45:52;;;;;;;1.90;1.00;;;10.60;85.10;;;;;;6184271;23;20015;-70
2022/02/08 17:48:18;;;;;;;1.67;0.70;;;10.60;85.10;;;;;;6184803;23;20081;-70
2022/02/08 17:50:45;;;;;;;2.63;0.93;;;10.60;85.10;;;;;;6182559;23;19997;-70
2022/02/08 17:53:11;;;;;;;2.58;0.80;;;10.60;85.10;;;;;;6184107;23;20008;-71
2022/02/08 17:55:36;;;;;;;2.05;0.73;;;10.60;85.20;;;;;;6184098;23;20014;-70
2022/02/08 17:58:04;;;;;;;1.85;0.70;;;10.60;85.20;;;;;;6157761;23;20430;-70
2022/02/08 18:00:32;;;;;;;1.67;0.68;;;10.60;85.20;;;;;;6183670;23;20005;-70
2022/02/08 18:02:59;;;;;;;2.63;0.77;;;10.60;85.20;;;;;;6184167;23;20071;-70
2022/02/08 18:05:25;;;;;;;1.58;0.50;;;10.60;86.00;;;;;;6184443;23;20028;-70
2022/02/08 18:07:51;;;;;;;0.98;0.70;;;10.60;85.40;;;;;;6184151;23;20433;-70
2022/02/08 18:10:22;;;;;;;1.38;0.60;;;10.50;85.40;;;;;;6184007;23;20004;-70
2022/02/08 18:12:50;;;;;;;1.15;0.50;;;10.50;85.50;;;;;;6182652;23;20080;-70
2022/02/08 18:15:16;;;;;;;1.05;0.70;;;10.40;85.40;;;;;;6184235;23;20027;-70
2022/02/08 18:20:29;;;;;;;1.60;0.82;;;10.50;85.50;;;;;;6183925;23;20036;-70
2022/02/08 18:23:19;;;;;;;1.75;0.63;;;10.50;85.50;;;;;;6184112;23;20068;-70
2022/02/08 18:25:56;;;;;;;0.95;0.80;;;10.40;85.40;;;;;;6183773;23;20453;-70
2022/02/08 18:28:39;;;;;;;1.10;0.90;;;10.40;85.50;;;;;;6184033;23;20076;-71
2022/02/08 18:55:29;;;;;;;0.95;0.73;;;10.30;86.20;;;;;;6181109;23;20043;-71
2022/02/08 19:07:02;;;;;;;0.90;0.80;;;10.20;86.20;;;;;;6182495;23;20044;-71
2022/02/08 19:09:03;;;;;;;1.50;0.98;;;10.20;86.20;;;;;;6183595;23;20023;-71